Авиационная погода в Игнатьево

Регион: 
Погода METAR: 
UHBB 261800Z 17004MPS CAVOK M16/M20 Q1027 R18/410260 NOSIG RMK QFE755/1006
Время наблюдения
2021-02-26T18:00:00Z
Температура C
-16.0
Точка росы
-20.0
Направление ветра
170
Скорость ветра (узлы)
8
Метео видимость
6.21
Явления погоды
Условия полета
VFR
Аэропорт подробнее: